Adel, Iowa
Current Conditions -  °F | °C
As of 11:19 PM on Monday 26 Jan 2015 (Local Time) from KDSM Reporting Station
Broken Clouds Broken Clouds  
Wind Chill: 30°   Ceiling: 2700
Heat Index: 36°   Visibility: 10mi
Dew Point: 32°   Wind: 8mph
Humidity: 86%   Direction: 300°WNW
Pressure: 30"   Gusts: NA
Location:  41.61°N, 94.02°W
Report Text: KDSM 270519Z 30007KT 10SM BKN027 02/00 A3000 RMK AO2 T00220000
Loading
Personal Weather Stations






























Interactive Weather Map New forecast layout! Learn more

10-Day Weather Forecast

Advertisements
Track Severe Weather on mobile